Time;durP1;ratioP1;P1;durP2;ratioP2;P2;SDS_P1;SDS_P2;PMS_P1;PMS_P2;Temp;Humidity;BMP_temperature;BMP_pressure;BME280_temperature;BME280_humidity;BME280_pressure;Samples;Min_cycle;Max_cycle;Signal;HPM_P1;HPM_P2
2022/12/12 00:00:52;;;;;;;17.77;11.53;;;;;;;;;;5061939;27;87029;-52
2022/12/12 00:03:21;;;;;;;17.50;11.47;;;;;;;;;;5061370;27;87030;-52
2022/12/12 00:05:49;;;;;;;19.43;12.37;;;;;;;;;;5061403;27;89275;-52
2022/12/12 00:08:19;;;;;;;19.73;11.23;;;;;;;;;;5061743;27;87500;-50
2022/12/12 00:10:47;;;;;;;16.50;11.13;;;;;;;;;;5061413;27;87093;-51
2022/12/12 00:13:15;;;;;;;14.50;9.47;;;;;;;;;;5061959;27;87130;-52
2022/12/12 00:15:44;;;;;;;15.93;10.43;;;;;;;;;;5061492;27;90101;-53
2022/12/12 00:18:12;;;;;;;13.57;9.10;;;;;;;;;;5061336;27;90082;-53
2022/12/12 00:20:40;;;;;;;14.40;8.60;;;;;;;;;;5061397;27;87426;-53
2022/12/12 00:23:09;;;;;;;11.50;8.67;;;;;;;;;;5062284;27;87014;-54
2022/12/12 00:25:38;;;;;;;12.97;8.40;;;;;;;;;;5062009;27;89017;-54
2022/12/12 00:28:07;;;;;;;11.10;7.57;;;;;;;;;;5061689;27;88793;-53
2022/12/12 00:30:35;;;;;;;13.43;7.83;;;;;;;;;;5061244;27;86922;-53
2022/12/12 00:33:03;;;;;;;10.67;7.13;;;;;;;;;;5060766;27;86387;-54
2022/12/12 00:35:31;;;;;;;14.90;7.47;;;;;;;;;;5061409;27;88030;-53
2022/12/12 00:38:00;;;;;;;10.23;6.13;;;;;;;;;;5061434;27;88855;-53
2022/12/12 00:40:28;;;;;;;7.87;5.70;;;;;;;;;;5061402;27;88028;-53
2022/12/12 00:42:58;;;;;;;7.57;5.17;;;;;;;;;;5061530;27;87058;-53
2022/12/12 00:45:26;;;;;;;7.93;4.80;;;;;;;;;;5061499;27;89085;-55
2022/12/12 00:47:54;;;;;;;7.87;5.40;;;;;;;;;;5061271;27;87773;-52
2022/12/12 00:50:23;;;;;;;6.73;4.70;;;;;;;;;;5060987;27;87733;-53
2022/12/12 00:52:51;;;;;;;5.93;4.33;;;;;;;;;;5060484;27;87049;-54
2022/12/12 00:55:19;;;;;;;5.03;3.80;;;;;;;;;;5061396;27;88435;-54
2022/12/12 00:57:48;;;;;;;6.43;3.93;;;;;;;;;;5061651;27;88847;-52
2022/12/12 01:00:18;;;;;;;4.93;3.73;;;;;;;;;;5061377;27;87559;-52
2022/12/12 01:02:46;;;;;;;5.00;3.80;;;;;;;;;;5060725;27;87047;-54
2022/12/12 01:05:14;;;;;;;4.13;3.50;;;;;;;;;;5060548;27;89064;-53
2022/12/12 01:07:43;;;;;;;6.47;3.60;;;;;;;;;;5080199;27;89950;-53
2022/12/12 01:10:11;;;;;;;5.90;3.57;;;;;;;;;;5082459;27;86939;-54
2022/12/12 01:12:39;;;;;;;4.07;3.33;;;;;;;;;;5082181;27;86903;-54
2022/12/12 01:15:08;;;;;;;4.63;2.87;;;;;;;;;;5082057;27;89362;-53
2022/12/12 01:17:38;;;;;;;4.20;3.23;;;;;;;;;;5081614;27;88837;-53
2022/12/12 01:20:07;;;;;;;5.87;3.10;;;;;;;;;;5081765;27;87001;-53
2022/12/12 01:22:36;;;;;;;6.53;3.23;;;;;;;;;;5082742;27;86183;-55
2022/12/12 01:25:04;;;;;;;4.90;2.97;;;;;;;;;;5082440;27;88000;-53
2022/12/12 01:27:32;;;;;;;4.77;2.73;;;;;;;;;;5082035;27;87759;-53
2022/12/12 01:30:01;;;;;;;5.70;3.43;;;;;;;;;;5082102;27;87981;-53
2022/12/12 01:32:29;;;;;;;4.57;3.43;;;;;;;;;;5081867;27;86937;-54
2022/12/12 01:34:59;;;;;;;4.00;3.17;;;;;;;;;;5081913;27;87991;-53
2022/12/12 01:37:28;;;;;;;4.90;3.40;;;;;;;;;;5067728;27;87904;-53
2022/12/12 01:39:56;;;;;;;6.37;3.97;;;;;;;;;;5061830;27;86986;-53
2022/12/12 01:42:24;;;;;;;6.23;4.10;;;;;;;;;;5062192;27;86971;-53
2022/12/12 01:44:53;;;;;;;5.87;3.93;;;;;;;;;;5061820;27;89066;-53
2022/12/12 01:47:22;;;;;;;4.30;3.87;;;;;;;;;;5061905;27;87411;-53
2022/12/12 01:49:51;;;;;;;5.83;3.70;;;;;;;;;;5061119;27;87439;-54
2022/12/12 01:52:22;;;;;;;6.03;4.13;;;;;;;;;;5060989;27;86868;-53
2022/12/12 01:54:51;;;;;;;4.40;4.00;;;;;;;;;;5060729;27;88986;-53
2022/12/12 01:57:21;;;;;;;6.83;4.37;;;;;;;;;;5061304;27;89370;-53
2022/12/12 01:59:50;;;;;;;4.00;2.83;;;;;;;;;;5061017;27;87067;-53
2022/12/12 02:02:18;;;;;;;4.73;3.37;;;;;;;;;;5061570;27;86797;-53
2022/12/12 02:04:46;;;;;;;4.93;3.23;;;;;;;;;;5061425;27;88029;-54
2022/12/12 02:07:16;;;;;;;5.73;3.37;;;;;;;;;;5061046;27;88940;-53
2022/12/12 02:09:46;;;;;;;4.40;2.53;;;;;;;;;;5061488;27;87131;-54
2022/12/12 02:12:14;;;;;;;4.90;3.20;;;;;;;;;;5061710;27;86315;-53
2022/12/12 02:14:43;;;;;;;4.80;3.37;;;;;;;;;;5060707;27;87845;-53
2022/12/12 02:17:27;;;;;;;3.70;2.60;;;;;;;;;;5060652;27;87796;-54
2022/12/12 02:20:11;;;;;;;2.83;2.50;;;;;;;;;;5060716;27;87956;-53
2022/12/12 02:22:48;;;;;;;4.10;2.63;;;;;;;;;;5061080;27;86972;-53
2022/12/12 02:25:28;;;;;;;3.83;2.87;;;;;;;;;;5060942;27;88262;-53
2022/12/12 02:28:01;;;;;;;3.77;2.43;;;;;;;;;;5060461;27;88019;-53
2022/12/12 02:30:31;;;;;;;3.53;2.53;;;;;;;;;;5061508;27;87028;-52
2022/12/12 02:33:04;;;;;;;3.40;2.20;;;;;;;;;;5060241;27;87196;-52
2022/12/12 02:35:34;;;;;;;3.77;2.40;;;;;;;;;;5060554;27;89022;-53
2022/12/12 02:38:04;;;;;;;3.13;2.17;;;;;;;;;;5060511;27;88910;-53
2022/12/12 02:40:34;;;;;;;3.40;2.37;;;;;;;;;;5060850;27;86982;-53
2022/12/12 02:43:04;;;;;;;3.77;2.30;;;;;;;;;;5061185;27;87009;-53
2022/12/12 02:45:34;;;;;;;2.77;1.60;;;;;;;;;;5060275;27;90087;-54
2022/12/12 02:48:05;;;;;;;3.17;2.60;;;;;;;;;;5060790;27;88604;-53
2022/12/12 02:50:34;;;;;;;3.43;2.27;;;;;;;;;;5060574;27;86923;-54
2022/12/12 02:53:02;;;;;;;3.37;2.37;;;;;;;;;;5061048;27;87025;-53
2022/12/12 02:55:30;;;;;;;2.30;2.10;;;;;;;;;;5061065;27;87941;-53
2022/12/12 02:58:04;;;;;;;2.23;1.90;;;;;;;;;;5060717;27;88907;-53
2022/12/12 03:00:33;;;;;;;4.13;1.83;;;;;;;;;;5060851;27;87204;-53
2022/12/12 03:08:48;;;;;;;2.17;1.70;;;;;;;;;;5060910;27;88751;-53
2022/12/12 03:11:16;;;;;;;2.13;1.73;;;;;;;;;;5060183;27;87893;-54
2022/12/12 03:13:45;;;;;;;2.87;1.80;;;;;;;;;;5060783;27;87080;-54
2022/12/12 03:16:18;;;;;;;2.20;1.80;;;;;;;;;;5060100;27;89211;-53
2022/12/12 03:18:52;;;;;;;2.57;1.63;;;;;;;;;;5060634;27;88798;-53
2022/12/12 03:21:22;;;;;;;1.97;1.70;;;;;;;;;;5060491;27;87089;-55
2022/12/12 03:23:51;;;;;;;3.97;2.00;;;;;;;;;;5060261;27;86998;-53
2022/12/12 03:26:20;;;;;;;3.47;2.17;;;;;;;;;;5059848;27;88313;-53
2022/12/12 03:28:49;;;;;;;3.77;2.10;;;;;;;;;;5060137;27;89020;-53
2022/12/12 03:31:17;;;;;;;2.33;1.60;;;;;;;;;;5062891;27;87047;-53
2022/12/12 03:33:46;;;;;;;2.83;1.63;;;;;;;;;;5063514;27;87204;-55
2022/12/12 03:36:17;;;;;;;2.57;2.10;;;;;;;;;;5062463;27;89767;-53
2022/12/12 03:38:45;;;;;;;3.93;1.47;;;;;;;;;;5063091;27;88881;-53
2022/12/12 03:41:15;;;;;;;2.83;2.13;;;;;;;;;;5063913;27;87000;-53
2022/12/12 03:43:45;;;;;;;2.47;1.77;;;;;;;;;;5063035;27;87496;-54
2022/12/12 03:46:15;;;;;;;2.00;1.47;;;;;;;;;;5063762;27;89138;-54
2022/12/12 03:48:45;;;;;;;2.77;1.40;;;;;;;;;;5063188;27;87052;-53
2022/12/12 03:51:14;;;;;;;2.07;1.70;;;;;;;;;;5063153;27;87165;-54
2022/12/12 03:53:45;;;;;;;1.73;1.50;;;;;;;;;;5063917;27;86281;-53
2022/12/12 03:56:13;;;;;;;2.30;1.57;;;;;;;;;;5063507;27;87890;-54
2022/12/12 03:58:42;;;;;;;2.80;1.63;;;;;;;;;;5063090;27;88921;-54
2022/12/12 04:01:11;;;;;;;1.77;1.47;;;;;;;;;;5062727;27;87920;-54
2022/12/12 04:03:41;;;;;;;3.07;1.57;;;;;;;;;;5063271;27;86968;-54
2022/12/12 04:06:28;;;;;;;1.90;1.47;;;;;;;;;;5063403;27;88617;-54
2022/12/12 04:14:43;;;;;;;1.53;1.43;;;;;;;;;;5062909;27;87502;-54
2022/12/12 04:17:12;;;;;;;2.43;1.97;;;;;;;;;;5062429;27;88738;-54
2022/12/12 04:25:25;;;;;;;4.37;2.03;;;;;;;;;;5051946;27;86948;-54
2022/12/12 04:27:53;;;;;;;2.80;1.77;;;;;;;;;;5062257;27;90127;-53
2022/12/12 04:30:21;;;;;;;2.63;2.00;;;;;;;;;;5062159;27;89615;-54
2022/12/12 04:32:50;;;;;;;2.07;1.87;;;;;;;;;;5062785;27;86785;-54
2022/12/12 04:35:19;;;;;;;3.47;2.10;;;;;;;;;;5062890;27;87552;-53
2022/12/12 04:37:48;;;;;;;2.07;1.50;;;;;;;;;;5072843;27;87098;-54
2022/12/12 04:40:17;;;;;;;2.67;1.43;;;;;;;;;;5082857;27;87815;-53
2022/12/12 04:42:47;;;;;;;2.37;1.60;;;;;;;;;;5083377;27;87512;-53
2022/12/12 04:45:16;;;;;;;2.27;1.40;;;;;;;;;;5083246;27;86117;-54
2022/12/12 04:47:44;;;;;;;2.30;1.33;;;;;;;;;;5068498;27;88121;-53
2022/12/12 04:50:12;;;;;;;2.03;1.37;;;;;;;;;;5062053;27;88498;-54
2022/12/12 04:52:41;;;;;;;2.13;1.83;;;;;;;;;;5062004;27;88025;-55
2022/12/12 04:55:09;;;;;;;1.87;1.33;;;;;;;;;;5062752;27;86942;-53
2022/12/12 04:57:39;;;;;;;3.30;1.67;;;;;;;;;;5062169;27;88077;-53
2022/12/12 05:00:09;;;;;;;2.57;1.87;;;;;;;;;;5061380;27;87498;-56
2022/12/12 05:02:40;;;;;;;2.87;1.80;;;;;;;;;;5062430;27;86926;-55
2022/12/12 05:05:09;;;;;;;3.33;1.90;;;;;;;;;;5061336;27;87195;-53
2022/12/12 05:07:38;;;;;;;2.07;1.40;;;;;;;;;;5061338;27;89378;-53
2022/12/12 05:10:09;;;;;;;3.03;1.57;;;;;;;;;;5063000;27;87780;-54
2022/12/12 05:12:41;;;;;;;1.90;1.70;;;;;;;;;;5061814;27;87204;-53
2022/12/12 05:15:11;;;;;;;2.73;1.57;;;;;;;;;;5062011;27;87009;-53
2022/12/12 05:17:41;;;;;;;3.07;1.70;;;;;;;;;;5058244;27;89940;-53
2022/12/12 05:20:09;;;;;;;1.43;1.33;;;;;;;;;;5060507;27;89986;-53
2022/12/12 05:22:38;;;;;;;2.93;1.87;;;;;;;;;;5058142;27;87290;-54
2022/12/12 05:25:06;;;;;;;2.60;1.80;;;;;;;;;;5060491;27;87448;-54
2022/12/12 05:27:35;;;;;;;2.93;1.87;;;;;;;;;;5060418;27;87983;-54
2022/12/12 05:30:03;;;;;;;3.10;1.43;;;;;;;;;;5061033;27;88891;-53
2022/12/12 05:32:33;;;;;;;4.20;1.53;;;;;;;;;;5061742;27;87149;-53
2022/12/12 05:35:01;;;;;;;1.50;1.37;;;;;;;;;;5063155;27;86804;-56
2022/12/12 05:37:29;;;;;;;3.53;1.90;;;;;;;;;;5068008;27;88913;-54
2022/12/12 05:39:58;;;;;;;1.40;1.30;;;;;;;;;;5083112;27;88919;-53
2022/12/12 05:42:26;;;;;;;3.77;1.67;;;;;;;;;;5078893;27;88009;-54
2022/12/12 05:44:55;;;;;;;3.23;1.70;;;;;;;;;;5058454;27;86785;-52
2022/12/12 05:47:23;;;;;;;3.23;1.30;;;;;;;;;;5041512;27;87975;-54
2022/12/12 05:49:53;;;;;;;2.83;1.53;;;;;;;;;;5040790;27;87930;-55
2022/12/12 05:52:21;;;;;;;3.10;1.60;;;;;;;;;;5059819;27;87750;-55
2022/12/12 05:54:50;;;;;;;1.60;1.10;;;;;;;;;;5062374;27;87033;-56
2022/12/12 05:57:18;;;;;;;2.10;1.50;;;;;;;;;;5062260;27;89257;-56
2022/12/12 05:59:46;;;;;;;3.07;2.10;;;;;;;;;;5062006;27;87335;-53
2022/12/12 06:02:15;;;;;;;2.03;1.57;;;;;;;;;;5062648;27;87050;-55
2022/12/12 06:04:44;;;;;;;1.90;1.40;;;;;;;;;;5044940;27;87052;-53
2022/12/12 06:07:13;;;;;;;2.40;1.50;;;;;;;;;;5045127;27;88651;-55
2022/12/12 06:09:42;;;;;;;1.27;1.10;;;;;;;;;;5053816;27;87499;-55
2022/12/12 06:12:10;;;;;;;3.73;1.57;;;;;;;;;;5053840;27;86739;-55
2022/12/12 06:14:38;;;;;;;2.93;1.33;;;;;;;;;;5062587;27;87715;-56
2022/12/12 06:17:06;;;;;;;1.90;1.70;;;;;;;;;;5044421;27;87268;-54
2022/12/12 06:19:35;;;;;;;1.83;1.50;;;;;;;;;;5058939;27;88837;-55
2022/12/12 06:22:03;;;;;;;4.80;1.80;;;;;;;;;;5052013;27;86855;-56
2022/12/12 06:24:33;;;;;;;2.17;1.70;;;;;;;;;;5075675;27;86275;-54
2022/12/12 06:27:01;;;;;;;1.23;1.07;;;;;;;;;;5082011;27;88858;-56
2022/12/12 06:29:29;;;;;;;2.97;1.30;;;;;;;;;;5041640;28;88820;-54
2022/12/12 06:31:58;;;;;;;2.27;1.33;;;;;;;;;;5041129;27;87943;-54
2022/12/12 06:34:26;;;;;;;1.53;1.43;;;;;;;;;;5041248;27;86818;-55
2022/12/12 06:36:54;;;;;;;2.40;1.33;;;;;;;;;;5041062;28;89023;-55
2022/12/12 06:39:23;;;;;;;1.60;1.37;;;;;;;;;;5052626;27;88408;-55
2022/12/12 06:41:52;;;;;;;1.63;1.30;;;;;;;;;;5061810;27;87024;-55
2022/12/12 06:44:20;;;;;;;1.93;1.63;;;;;;;;;;5061693;27;87037;-55
2022/12/12 06:46:49;;;;;;;1.30;1.20;;;;;;;;;;5059745;27;88092;-55
2022/12/12 06:49:17;;;;;;;2.30;2.10;;;;;;;;;;5062222;27;88079;-55
2022/12/12 06:51:47;;;;;;;2.43;1.20;;;;;;;;;;5046750;27;87079;-55
2022/12/12 06:54:16;;;;;;;2.03;1.40;;;;;;;;;;5057367;27;87439;-55
2022/12/12 06:56:44;;;;;;;1.30;1.20;;;;;;;;;;5045390;27;88629;-55
2022/12/12 06:59:17;;;;;;;2.47;1.70;;;;;;;;;;5041237;27;89936;-56
2022/12/12 07:01:45;;;;;;;1.07;1.07;;;;;;;;;;5057098;27;86965;-55
2022/12/12 07:04:14;;;;;;;1.93;1.30;;;;;;;;;;5063399;27;87045;-56
2022/12/12 07:06:42;;;;;;;1.93;1.50;;;;;;;;;;5050230;27;89001;-55
2022/12/12 07:09:10;;;;;;;1.57;1.20;;;;;;;;;;5044664;27;86999;-55
2022/12/12 07:11:39;;;;;;;1.57;1.43;;;;;;;;;;5059634;27;87039;-55
2022/12/12 07:14:07;;;;;;;1.73;1.13;;;;;;;;;;5064322;27;86103;-55
2022/12/12 07:16:37;;;;;;;1.60;1.20;;;;;;;;;;5046113;27;87997;-55
2022/12/12 07:19:06;;;;;;;1.97;1.80;;;;;;;;;;5044358;27;87816;-56
2022/12/12 07:21:34;;;;;;;2.30;1.27;;;;;;;;;;5042863;27;88069;-56
2022/12/12 07:24:02;;;;;;;1.57;1.27;;;;;;;;;;5077558;27;86935;-56
2022/12/12 07:26:30;;;;;;;1.87;1.53;;;;;;;;;;5081565;27;88026;-55
2022/12/12 07:29:02;;;;;;;1.30;1.10;;;;;;;;;;5064609;27;87043;-55
2022/12/12 07:31:30;;;;;;;4.40;2.37;;;;;;;;;;5050863;27;87696;-55
2022/12/12 07:34:00;;;;;;;1.70;1.10;;;;;;;;;;5044536;27;87157;-55
2022/12/12 07:36:29;;;;;;;2.07;1.50;;;;;;;;;;5045993;27;88013;-55
2022/12/12 07:38:57;;;;;;;1.47;1.00;;;;;;;;;;5059576;27;88136;-55
2022/12/12 07:41:25;;;;;;;1.60;1.10;;;;;;;;;;5062397;27;87053;-55
2022/12/12 07:43:54;;;;;;;1.40;1.30;;;;;;;;;;5063858;27;86973;-55
2022/12/12 07:46:23;;;;;;;3.10;1.37;;;;;;;;;;5050853;27;89065;-55
2022/12/12 07:48:51;;;;;;;2.20;1.40;;;;;;;;;;5044136;28;90023;-55
2022/12/12 07:51:21;;;;;;;1.40;1.10;;;;;;;;;;5051916;27;86864;-56
2022/12/12 07:53:50;;;;;;;1.83;1.30;;;;;;;;;;5062725;27;86988;-55
2022/12/12 07:56:18;;;;;;;3.43;1.70;;;;;;;;;;5043089;28;89236;-55
2022/12/12 07:58:47;;;;;;;2.47;1.47;;;;;;;;;;5043361;27;87732;-55
2022/12/12 08:01:15;;;;;;;1.87;1.30;;;;;;;;;;5043675;27;88270;-55
2022/12/12 08:03:44;;;;;;;2.17;1.47;;;;;;;;;;5044251;28;86442;-55
2022/12/12 08:06:15;;;;;;;1.87;1.30;;;;;;;;;;5043390;27;88211;-55
2022/12/12 08:08:44;;;;;;;1.23;1.13;;;;;;;;;;5062292;27;87806;-55
2022/12/12 08:11:14;;;;;;;3.07;1.50;;;;;;;;;;5069247;27;87988;-55
2022/12/12 08:13:42;;;;;;;1.83;1.43;;;;;;;;;;5084996;27;86976;-56
2022/12/12 08:16:13;;;;;;;2.20;1.40;;;;;;;;;;5070463;27;89194;-55
2022/12/12 08:18:41;;;;;;;2.43;1.23;;;;;;;;;;5063937;27;87795;-55
2022/12/12 08:21:10;;;;;;;2.13;1.57;;;;;;;;;;5063266;27;86975;-55
2022/12/12 08:23:38;;;;;;;1.37;1.13;;;;;;;;;;5063821;27;87011;-55
2022/12/12 08:26:08;;;;;;;1.33;1.23;;;;;;;;;;5063821;27;87005;-55
2022/12/12 08:28:36;;;;;;;1.77;1.63;;;;;;;;;;5063956;27;87699;-55
2022/12/12 08:31:05;;;;;;;3.37;1.53;;;;;;;;;;5063993;27;87012;-55
2022/12/12 08:33:33;;;;;;;2.20;1.53;;;;;;;;;;5064091;27;87133;-55
2022/12/12 08:36:02;;;;;;;2.57;1.23;;;;;;;;;;5063145;27;88872;-56
2022/12/12 08:38:30;;;;;;;1.70;1.40;;;;;;;;;;5063415;27;90038;-55
2022/12/12 08:40:58;;;;;;;2.00;1.23;;;;;;;;;;5064066;27;87117;-55
2022/12/12 08:43:28;;;;;;;2.47;1.30;;;;;;;;;;5063699;27;87039;-55
2022/12/12 08:45:59;;;;;;;1.83;1.13;;;;;;;;;;5063448;27;89204;-56
2022/12/12 08:48:29;;;;;;;1.37;1.13;;;;;;;;;;5063997;27;88652;-56
2022/12/12 08:50:58;;;;;;;1.57;1.00;;;;;;;;;;5063544;27;87098;-55
2022/12/12 08:53:26;;;;;;;2.30;0.83;;;;;;;;;;5064199;27;86343;-53
2022/12/12 08:55:55;;;;;;;2.83;1.43;;;;;;;;;;5063817;27;88219;-56
2022/12/12 08:58:23;;;;;;;1.10;1.00;;;;;;;;;;5063327;27;87702;-55
2022/12/12 09:00:53;;;;;;;1.07;0.67;;;;;;;;;;5062986;27;88546;-55
2022/12/12 09:03:21;;;;;;;2.50;1.43;;;;;;;;;;5062774;27;87042;-53
2022/12/12 09:05:56;;;;;;;1.67;1.33;;;;;;;;;;5062864;27;88133;-53
2022/12/12 09:08:25;;;;;;;1.73;1.10;;;;;;;;;;5063416;27;88809;-52
2022/12/12 09:10:53;;;;;;;2.23;1.57;;;;;;;;;;5063582;27;87014;-53
2022/12/12 09:13:21;;;;;;;1.97;1.20;;;;;;;;;;5063308;27;87114;-53
2022/12/12 09:15:50;;;;;;;1.20;0.97;;;;;;;;;;5063088;27;89199;-53
2022/12/12 09:18:20;;;;;;;1.93;1.20;;;;;;;;;;5063521;27;88631;-53
2022/12/12 09:20:49;;;;;;;1.53;1.07;;;;;;;;;;5063008;27;87002;-55
2022/12/12 09:23:17;;;;;;;1.50;1.13;;;;;;;;;;5063337;27;86982;-53
2022/12/12 09:25:46;;;;;;;1.77;1.10;;;;;;;;;;5062342;27;88845;-56
2022/12/12 09:28:15;;;;;;;1.40;1.10;;;;;;;;;;5062438;27;89534;-53
2022/12/12 09:30:43;;;;;;;4.43;1.50;;;;;;;;;;5063245;27;87016;-54
2022/12/12 09:33:12;;;;;;;1.50;1.20;;;;;;;;;;5062839;27;86989;-53
2022/12/12 09:35:41;;;;;;;1.73;1.27;;;;;;;;;;5062463;27;89699;-53
2022/12/12 09:38:09;;;;;;;1.27;1.07;;;;;;;;;;5062495;27;87610;-53
2022/12/12 09:40:43;;;;;;;2.03;0.90;;;;;;;;;;5062564;27;86879;-53
2022/12/12 09:43:11;;;;;;;1.93;1.27;;;;;;;;;;5063480;27;86320;-53
2022/12/12 09:45:40;;;;;;;1.63;1.53;;;;;;;;;;5062874;27;87829;-54
2022/12/12 09:48:08;;;;;;;1.70;1.20;;;;;;;;;;5062907;27;88847;-53
2022/12/12 09:50:37;;;;;;;2.73;1.83;;;;;;;;;;5061749;27;88019;-55
2022/12/12 09:53:07;;;;;;;1.90;1.20;;;;;;;;;;5062548;27;87195;-56
2022/12/12 09:55:38;;;;;;;1.73;1.10;;;;;;;;;;5062275;27;89342;-54
2022/12/12 09:58:07;;;;;;;1.60;1.00;;;;;;;;;;5062773;27;86709;-54
2022/12/12 10:00:37;;;;;;;1.20;1.10;;;;;;;;;;5063717;27;87087;-55
2022/12/12 10:03:07;;;;;;;1.80;1.47;;;;;;;;;;5062636;27;87046;-55
2022/12/12 10:05:38;;;;;;;1.60;1.30;;;;;;;;;;5062447;27;89158;-55
2022/12/12 10:08:09;;;;;;;1.67;1.00;;;;;;;;;;5062476;27;86348;-55
2022/12/12 10:10:39;;;;;;;1.67;1.10;;;;;;;;;;5062257;27;86933;-55
2022/12/12 10:13:07;;;;;;;1.70;1.20;;;;;;;;;;5062761;27;86935;-55
2022/12/12 10:15:37;;;;;;;0.97;0.93;;;;;;;;;;5061547;27;89861;-53
2022/12/12 10:18:06;;;;;;;1.40;1.03;;;;;;;;;;5062354;27;89942;-55
2022/12/12 10:20:36;;;;;;;1.10;1.03;;;;;;;;;;5062601;27;86996;-55
2022/12/12 10:23:06;;;;;;;2.47;1.53;;;;;;;;;;5061910;27;87947;-55
2022/12/12 10:25:40;;;;;;;0.93;0.90;;;;;;;;;;5062075;27;88762;-55
2022/12/12 10:28:10;;;;;;;1.27;0.80;;;;;;;;;;5061944;27;87059;-54
2022/12/12 10:30:40;;;;;;;2.03;1.40;;;;;;;;;;5062336;27;86857;-53
2022/12/12 10:33:12;;;;;;;1.60;1.20;;;;;;;;;;5062439;27;86282;-53
2022/12/12 10:35:42;;;;;;;1.20;0.97;;;;;;;;;;5061849;27;88029;-54
2022/12/12 10:38:16;;;;;;;1.37;0.97;;;;;;;;;;5061741;27;87884;-54
2022/12/12 10:40:49;;;;;;;2.00;1.23;;;;;;;;;;5061607;27;87939;-54
2022/12/12 10:43:18;;;;;;;1.00;0.90;;;;;;;;;;5061439;27;86782;-54
2022/12/12 10:45:48;;;;;;;2.20;1.10;;;;;;;;;;5061059;27;89021;-54
2022/12/12 10:48:17;;;;;;;2.00;1.20;;;;;;;;;;5061848;27;87667;-54
2022/12/12 10:50:45;;;;;;;2.30;1.33;;;;;;;;;;5061399;27;87016;-55
2022/12/12 10:53:14;;;;;;;2.40;1.17;;;;;;;;;;5061796;27;86959;-54
2022/12/12 10:55:44;;;;;;;2.17;0.93;;;;;;;;;;5061800;27;86996;-54
2022/12/12 10:58:15;;;;;;;1.23;0.80;;;;;;;;;;5061928;27;88922;-54
2022/12/12 11:00:44;;;;;;;1.37;1.10;;;;;;;;;;5062420;27;87055;-54
2022/12/12 11:03:20;;;;;;;2.43;1.27;;;;;;;;;;5062037;27;87084;-54
2022/12/12 11:05:48;;;;;;;1.73;1.00;;;;;;;;;;5061033;27;90000;-53
2022/12/12 11:08:19;;;;;;;1.03;0.90;;;;;;;;;;5061231;27;89848;-54
2022/12/12 11:10:47;;;;;;;1.53;1.03;;;;;;;;;;5061889;27;87063;-54
2022/12/12 11:13:17;;;;;;;1.47;1.10;;;;;;;;;;5061612;27;87006;-54
2022/12/12 11:15:46;;;;;;;1.20;1.00;;;;;;;;;;5061107;27;88132;-54
2022/12/12 11:18:15;;;;;;;2.03;1.57;;;;;;;;;;5061782;27;88832;-54
2022/12/12 11:20:45;;;;;;;1.23;1.13;;;;;;;;;;5061132;27;86988;-54
2022/12/12 11:23:16;;;;;;;2.07;1.50;;;;;;;;;;5061245;27;86284;-53
2022/12/12 11:25:45;;;;;;;0.83;0.83;;;;;;;;;;5060975;27;89164;-54
2022/12/12 11:28:16;;;;;;;1.50;1.03;;;;;;;;;;5061080;27;88134;-54
2022/12/12 11:30:45;;;;;;;1.27;1.00;;;;;;;;;;5060962;27;87919;-54
2022/12/12 11:33:17;;;;;;;2.40;1.47;;;;;;;;;;5061642;27;86846;-53
2022/12/12 11:35:46;;;;;;;1.43;1.20;;;;;;;;;;5061490;27;88997;-54
2022/12/12 11:38:17;;;;;;;1.03;0.90;;;;;;;;;;5061257;27;87752;-54
2022/12/12 11:40:45;;;;;;;5.00;1.83;;;;;;;;;;5061457;27;86979;-54
2022/12/12 11:43:23;;;;;;;1.33;1.03;;;;;;;;;;5061588;27;86895;-54
2022/12/12 11:45:59;;;;;;;1.50;1.27;;;;;;;;;;5060969;27;87217;-54
2022/12/12 11:48:38;;;;;;;1.70;1.20;;;;;;;;;;5061712;27;89598;-54
2022/12/12 11:51:07;;;;;;;1.40;0.93;;;;;;;;;;5062009;27;86811;-54
2022/12/12 11:53:36;;;;;;;1.40;1.00;;;;;;;;;;5064514;27;86855;-53
2022/12/12 11:56:23;;;;;;;1.77;1.20;;;;;;;;;;5063561;27;90069;-53
2022/12/12 11:58:54;;;;;;;1.97;1.40;;;;;;;;;;5051431;27;88766;-54
2022/12/12 12:01:24;;;;;;;1.70;1.10;;;;;;;;;;5064766;27;87161;-53
2022/12/12 12:04:01;;;;;;;2.37;1.70;;;;;;;;;;5064770;27;86992;-54
2022/12/12 12:06:33;;;;;;;1.87;1.53;;;;;;;;;;5064198;27;89350;-54
2022/12/12 12:09:11;;;;;;;0.87;0.83;;;;;;;;;;5063593;27;89083;-55
2022/12/12 12:11:41;;;;;;;1.30;1.17;;;;;;;;;;5064388;27;86900;-54
2022/12/12 12:14:14;;;;;;;2.60;1.23;;;;;;;;;;5064431;27;86426;-57
2022/12/12 12:16:46;;;;;;;1.40;1.20;;;;;;;;;;5064073;27;88201;-53
2022/12/12 12:19:16;;;;;;;1.87;1.23;;;;;;;;;;5064407;27;88878;-53
2022/12/12 12:21:46;;;;;;;4.27;1.67;;;;;;;;;;5063682;27;87976;-53
2022/12/12 12:24:35;;;;;;;2.03;1.30;;;;;;;;;;5064481;27;86911;-54
2022/12/12 12:27:05;;;;;;;4.03;1.57;;;;;;;;;;5058434;27;88103;-54
2022/12/12 12:29:40;;;;;;;2.37;1.23;;;;;;;;;;5063806;27;87862;-53
2022/12/12 12:32:12;;;;;;;2.00;1.33;;;;;;;;;;5064489;27;86853;-55
2022/12/12 12:34:42;;;;;;;4.37;2.03;;;;;;;;;;5063840;27;87028;-54
2022/12/12 12:37:15;;;;;;;2.27;1.37;;;;;;;;;;5063898;27;89164;-54
2022/12/12 12:39:54;;;;;;;2.53;1.77;;;;;;;;;;5063595;27;88831;-54
2022/12/12 12:42:25;;;;;;;1.10;1.00;;;;;;;;;;5063682;27;87106;-54
2022/12/12 12:44:56;;;;;;;1.43;1.27;;;;;;;;;;5063803;27;87097;-54
2022/12/12 12:47:27;;;;;;;3.53;1.87;;;;;;;;;;5062962;27;89257;-54
2022/12/12 12:49:57;;;;;;;2.57;1.27;;;;;;;;;;5062738;27;89812;-54
2022/12/12 12:52:26;;;;;;;1.87;1.27;;;;;;;;;;5063466;27;87054;-54
2022/12/12 12:54:56;;;;;;;3.13;1.50;;;;;;;;;;5063760;27;86850;-54
2022/12/12 12:57:25;;;;;;;3.50;1.50;;;;;;;;;;5063445;27;87699;-54
2022/12/12 12:59:54;;;;;;;1.47;1.37;;;;;;;;;;5063068;27;87622;-54
2022/12/12 13:02:23;;;;;;;1.40;1.13;;;;;;;;;;5062899;27;87017;-54
2022/12/12 13:04:57;;;;;;;3.43;1.67;;;;;;;;;;5063029;27;86192;-54
2022/12/12 13:07:27;;;;;;;3.07;1.47;;;;;;;;;;5062958;27;89224;-53
2022/12/12 13:09:58;;;;;;;1.73;1.47;;;;;;;;;;5063720;27;87480;-54
2022/12/12 13:12:28;;;;;;;2.60;1.67;;;;;;;;;;5063296;27;87811;-54
2022/12/12 13:14:57;;;;;;;1.40;1.30;;;;;;;;;;5063295;27;86879;-54
2022/12/12 13:17:39;;;;;;;3.37;1.67;;;;;;;;;;5062900;27;89288;-54
2022/12/12 13:20:12;;;;;;;3.90;1.20;;;;;;;;;;5063297;27;87573;-53
2022/12/12 13:22:47;;;;;;;2.67;1.50;;;;;;;;;;5062987;27;86841;-54
2022/12/12 13:25:17;;;;;;;2.27;1.30;;;;;;;;;;5063040;27;87390;-54
2022/12/12 13:27:46;;;;;;;3.63;1.03;;;;;;;;;;5062738;27;89212;-55
2022/12/12 13:30:18;;;;;;;2.30;1.20;;;;;;;;;;5063623;27;87431;-54
2022/12/12 13:32:51;;;;;;;2.07;1.87;;;;;;;;;;5062685;27;87028;-53
2022/12/12 13:35:23;;;;;;;4.03;1.40;;;;;;;;;;5062646;27;87043;-54
2022/12/12 13:37:52;;;;;;;2.57;1.50;;;;;;;;;;5061673;27;88965;-54
2022/12/12 13:40:25;;;;;;;2.80;1.60;;;;;;;;;;5062502;27;89892;-53
2022/12/12 13:42:55;;;;;;;2.43;1.50;;;;;;;;;;5062886;27;87004;-54
2022/12/12 13:45:38;;;;;;;2.00;1.50;;;;;;;;;;5062800;27;87714;-55
2022/12/12 13:48:07;;;;;;;2.93;1.73;;;;;;;;;;5060470;27;89311;-54
2022/12/12 13:50:37;;;;;;;2.60;1.80;;;;;;;;;;5062285;27;89040;-54
2022/12/12 13:53:26;;;;;;;5.60;1.60;;;;;;;;;;5062934;27;86852;-54
2022/12/12 13:56:09;;;;;;;3.80;1.53;;;;;;;;;;5057084;27;88445;-54
2022/12/12 13:58:37;;;;;;;2.00;1.77;;;;;;;;;;5062390;27;89276;-54
2022/12/12 14:01:34;;;;;;;1.77;1.17;;;;;;;;;;5062536;27;88976;-54
2022/12/12 14:04:02;;;;;;;2.30;2.07;;;;;;;;;;5015524;27;87991;-55
2022/12/12 14:06:32;;;;;;;1.97;1.60;;;;;;;;;;5062750;27;86971;-54
2022/12/12 14:09:00;;;;;;;2.57;1.87;;;;;;;;;;5062762;27;89077;-54
2022/12/12 14:11:32;;;;;;;2.10;1.90;;;;;;;;;;5062336;27;87834;-54
2022/12/12 14:14:03;;;;;;;2.90;2.20;;;;;;;;;;5061295;27;86838;-54
2022/12/12 14:16:31;;;;;;;5.43;1.80;;;;;;;;;;5061887;27;86978;-54
2022/12/12 14:19:02;;;;;;;4.90;2.33;;;;;;;;;;5062226;27;88953;-54
2022/12/12 14:21:39;;;;;;;2.23;1.80;;;;;;;;;;5062823;27;88870;-54
2022/12/12 14:24:26;;;;;;;6.10;1.50;;;;;;;;;;5061792;27;87032;-54
2022/12/12 14:26:54;;;;;;;3.87;1.60;;;;;;;;;;5061693;27;87016;-54
2022/12/12 14:29:26;;;;;;;4.67;2.10;;;;;;;;;;5061482;27;90083;-53
2022/12/12 14:31:58;;;;;;;1.60;1.23;;;;;;;;;;5062056;27;89704;-54
2022/12/12 14:34:27;;;;;;;4.00;1.63;;;;;;;;;;5061820;27;87004;-54
2022/12/12 14:37:13;;;;;;;2.23;1.50;;;;;;;;;;5061858;27;87071;-54
2022/12/12 14:39:57;;;;;;;1.97;1.50;;;;;;;;;;5061655;27;87849;-54
2022/12/12 14:42:33;;;;;;;3.07;1.30;;;;;;;;;;5059715;27;89119;-54
2022/12/12 14:45:25;;;;;;;1.63;1.50;;;;;;;;;;5062106;27;86838;-53
2022/12/12 14:48:08;;;;;;;3.23;1.37;;;;;;;;;;5062821;27;86326;-54
2022/12/12 14:50:37;;;;;;;4.03;1.77;;;;;;;;;;5061669;27;89165;-53
2022/12/12 14:53:13;;;;;;;3.87;2.23;;;;;;;;;;5062047;27;87655;-54
2022/12/12 14:55:46;;;;;;;2.47;1.40;;;;;;;;;;5061645;27;88060;-55
2022/12/12 14:58:15;;;;;;;2.60;1.50;;;;;;;;;;5061512;27;86869;-54
2022/12/12 15:00:45;;;;;;;3.83;1.90;;;;;;;;;;5061400;27;88210;-54
2022/12/12 15:03:13;;;;;;;3.03;1.60;;;;;;;;;;5061656;27;87527;-53
2022/12/12 15:05:42;;;;;;;5.83;2.00;;;;;;;;;;5061305;27;87975;-55
2022/12/12 15:08:17;;;;;;;3.60;1.60;;;;;;;;;;5061942;27;87009;-54
2022/12/12 15:10:45;;;;;;;2.00;1.80;;;;;;;;;;5061595;27;89061;-54
2022/12/12 15:13:19;;;;;;;5.53;2.03;;;;;;;;;;5061689;27;88709;-55
2022/12/12 15:15:49;;;;;;;4.10;1.70;;;;;;;;;;5061635;27;87169;-54
2022/12/12 15:18:18;;;;;;;2.83;1.93;;;;;;;;;;5061448;27;87042;-54